createdAt,value
2023-02-17T00:01:30.802Z,10.18
2023-02-17T00:03:57.352Z,10.21
2023-02-17T00:06:26.770Z,10.19
2023-02-17T00:08:53.348Z,10.29
2023-02-17T00:11:20.287Z,10.25
2023-02-17T00:13:46.897Z,10.25
2023-02-17T00:16:18.279Z,10.22
2023-02-17T00:18:45.304Z,10.33
2023-02-17T00:21:18.386Z,10.26
2023-02-17T00:23:46.062Z,10.16
2023-02-17T00:26:13.744Z,10.19
2023-02-17T00:28:40.633Z,10.27
2023-02-17T00:31:19.231Z,10.24
2023-02-17T00:33:46.535Z,10.15
2023-02-17T00:36:17.721Z,10.23
2023-02-17T00:38:44.255Z,10.32
2023-02-17T00:41:10.813Z,10.34
2023-02-17T00:43:43.248Z,10.31
2023-02-17T00:46:09.747Z,10.31
2023-02-17T00:48:36.370Z,10.25
2023-02-17T00:51:02.946Z,10.19
2023-02-17T00:53:29.550Z,10.28
2023-02-17T00:55:56.382Z,10.26
2023-02-17T00:58:23.636Z,10.18
2023-02-17T01:00:50.131Z,10.18
2023-02-17T01:03:18.411Z,10.23
2023-02-17T01:05:46.919Z,10.18
2023-02-17T01:08:14.436Z,10.19
2023-02-17T01:10:43.103Z,10.26
2023-02-17T01:13:10.747Z,10.22
2023-02-17T01:15:48.888Z,10.16
2023-02-17T01:18:16.844Z,10.11
2023-02-17T01:20:43.452Z,10.18
2023-02-17T01:23:11.620Z,10.18
2023-02-17T01:25:39.809Z,10.16
2023-02-17T01:28:07.831Z,10.18
2023-02-17T01:30:35.142Z,10.09
2023-02-17T01:33:01.622Z,10.04
2023-02-17T01:35:28.153Z,10.05
2023-02-17T01:37:54.619Z,10.05
2023-02-17T01:40:21.081Z,10.09
2023-02-17T01:42:47.548Z,10.12
2023-02-17T01:45:20.090Z,10.12
2023-02-17T01:48:11.638Z,10.09
2023-02-17T01:50:46.664Z,10.06
2023-02-17T01:53:16.989Z,10.19
2023-02-17T01:55:44.472Z,10.25
2023-02-17T01:58:16.079Z,10.21
2023-02-17T02:00:43.470Z,10.17
2023-02-17T02:03:14.004Z,10.23
2023-02-17T02:05:42.438Z,10.22
2023-02-17T02:08:11.298Z,10.24
2023-02-17T02:10:38.315Z,10.29
2023-02-17T02:13:05.281Z,10.26
2023-02-17T02:15:53.620Z,10.25
2023-02-17T02:18:42.006Z,10.30
2023-02-17T02:21:14.686Z,10.37
2023-02-17T02:23:52.257Z,10.33
2023-02-17T02:26:30.893Z,10.29
2023-02-17T02:29:48.534Z,10.20
2023-02-17T02:32:33.358Z,10.19
2023-02-17T02:35:20.617Z,10.28
2023-02-17T02:38:17.438Z,10.26
2023-02-17T02:40:51.467Z,10.34
2023-02-17T02:43:18.371Z,10.30
2023-02-17T02:45:44.855Z,10.34
2023-02-17T02:48:11.414Z,10.29
2023-02-17T02:50:50.321Z,10.31
2023-02-17T02:53:19.717Z,10.30
2023-02-17T02:56:01.646Z,10.36
2023-02-17T02:58:51.945Z,10.42
2023-02-17T03:01:37.171Z,10.36
2023-02-17T03:04:16.580Z,10.32
2023-02-17T03:06:45.900Z,10.36
2023-02-17T03:09:18.875Z,10.40
2023-02-17T03:11:47.258Z,10.37
2023-02-17T03:14:16.549Z,10.43
2023-02-17T03:16:43.552Z,10.46
2023-02-17T03:19:11.135Z,10.43
2023-02-17T03:21:50.348Z,10.38
2023-02-17T03:24:17.590Z,10.47
2023-02-17T03:26:44.083Z,10.51
2023-02-17T03:29:10.538Z,10.41
2023-02-17T03:31:37.989Z,10.39
2023-02-17T03:34:06.108Z,10.41
2023-02-17T03:36:32.849Z,10.43
2023-02-17T03:38:59.333Z,10.39
2023-02-17T03:41:26.386Z,10.39
2023-02-17T03:43:53.162Z,10.35
2023-02-17T03:46:20.237Z,10.38
2023-02-17T03:48:46.709Z,10.42
2023-02-17T03:51:15.880Z,10.44
2023-02-17T03:53:43.055Z,10.42
2023-02-17T03:56:10.228Z,10.39
2023-02-17T03:58:37.323Z,10.41
2023-02-17T04:01:04.844Z,10.46
2023-02-17T04:03:31.902Z,10.43
2023-02-17T04:05:58.370Z,10.43
2023-02-17T04:08:24.909Z,10.46
2023-02-17T04:10:56.756Z,10.42
2023-02-17T04:13:24.342Z,10.42
2023-02-17T04:15:51.607Z,10.40
2023-02-17T04:18:18.752Z,10.35
2023-02-17T04:20:45.282Z,10.41
2023-02-17T04:23:11.908Z,10.47
2023-02-17T04:25:38.534Z,10.49
2023-02-17T04:28:06.155Z,10.54
2023-02-17T04:30:33.345Z,10.57
2023-02-17T04:33:00.466Z,10.61
2023-02-17T04:35:27.324Z,10.61
2023-02-17T04:37:54.194Z,10.63
2023-02-17T04:40:21.256Z,10.54
2023-02-17T04:42:47.778Z,10.52
2023-02-17T04:45:15.812Z,10.58
2023-02-17T04:47:42.232Z,10.61
2023-02-17T04:50:10.234Z,10.53
2023-02-17T04:52:36.960Z,10.51
2023-02-17T04:55:04.722Z,10.65
2023-02-17T04:57:31.228Z,10.63
2023-02-17T04:59:57.783Z,10.51
2023-02-17T05:02:26.899Z,10.58
2023-02-17T05:04:54.259Z,10.59
2023-02-17T05:07:21.219Z,10.56
2023-02-17T05:09:48.113Z,10.58
2023-02-17T05:12:14.556Z,10.64
2023-02-17T05:14:40.988Z,10.56
2023-02-17T05:17:07.464Z,10.61
2023-02-17T05:19:34.091Z,10.69
2023-02-17T05:22:00.777Z,10.66
2023-02-17T05:24:27.328Z,10.64
2023-02-17T05:26:53.892Z,10.61
2023-02-17T05:29:20.423Z,10.62
2023-02-17T05:31:47.006Z,10.67
2023-02-17T05:34:13.467Z,10.68
2023-02-17T05:36:39.997Z,10.69
2023-02-17T05:39:06.432Z,10.70
2023-02-17T05:41:32.858Z,10.63
2023-02-17T05:43:59.355Z,10.68
2023-02-17T05:46:25.856Z,10.62
2023-02-17T05:48:52.321Z,10.56
2023-02-17T05:51:18.799Z,10.54
2023-02-17T05:53:45.319Z,10.51
2023-02-17T05:56:11.930Z,10.55
2023-02-17T05:58:38.462Z,10.52
2023-02-17T06:01:10.038Z,10.57
2023-02-17T06:03:36.730Z,10.62
2023-02-17T06:06:03.843Z,10.64
2023-02-17T06:08:30.340Z,10.59
2023-02-17T06:10:57.073Z,10.67
2023-02-17T06:13:23.559Z,10.68
2023-02-17T06:15:50.126Z,10.65
2023-02-17T06:18:17.169Z,10.60
2023-02-17T06:20:43.646Z,10.56
2023-02-17T06:23:11.434Z,10.62
2023-02-17T06:25:37.962Z,10.61
2023-02-17T06:28:05.113Z,10.64
2023-02-17T06:30:31.926Z,10.64
2023-02-17T06:32:59.219Z,10.63
2023-02-17T06:35:26.173Z,10.72
2023-02-17T06:37:53.127Z,10.73
2023-02-17T06:40:19.897Z,10.70
2023-02-17T06:42:46.415Z,10.64
2023-02-17T06:45:13.369Z,10.64
2023-02-17T06:47:39.833Z,10.71
2023-02-17T06:50:07.104Z,10.70
2023-02-17T06:52:33.688Z,10.80
2023-02-17T06:55:00.175Z,10.75
2023-02-17T06:57:26.971Z,10.75
2023-02-17T06:59:53.493Z,10.80
2023-02-17T07:02:20.411Z,10.73
2023-02-17T07:04:46.902Z,10.78
2023-02-17T07:07:13.340Z,10.69
2023-02-17T07:09:39.997Z,10.59
2023-02-17T07:12:07.390Z,10.54
2023-02-17T07:14:35.156Z,10.53
2023-02-17T07:17:02.287Z,10.49
2023-02-17T07:19:28.819Z,10.53
2023-02-17T07:21:55.530Z,10.56
2023-02-17T07:24:22.282Z,10.55
2023-02-17T07:26:48.770Z,10.62
2023-02-17T07:29:15.273Z,10.56
2023-02-17T07:31:42.048Z,10.59
2023-02-17T07:34:08.491Z,10.59
2023-02-17T07:36:35.952Z,10.65
2023-02-17T07:39:04.018Z,10.62
2023-02-17T07:41:32.777Z,10.65
2023-02-17T07:43:59.491Z,10.63
2023-02-17T07:46:27.071Z,10.70
2023-02-17T07:48:53.560Z,10.69
2023-02-17T07:51:22.226Z,10.80
2023-02-17T07:53:50.464Z,10.78
2023-02-17T07:56:19.369Z,10.80
2023-02-17T07:58:46.034Z,10.88
2023-02-17T08:01:22.457Z,10.92
2023-02-17T08:03:49.803Z,10.87
2023-02-17T08:06:19.084Z,10.84
2023-02-17T08:09:05.197Z,10.85
2023-02-17T08:11:50.105Z,10.90
2023-02-17T08:14:16.774Z,10.94
2023-02-17T08:16:43.438Z,10.91
2023-02-17T08:19:09.951Z,10.92
2023-02-17T08:21:36.410Z,10.99
2023-02-17T08:24:03.088Z,11.06
2023-02-17T08:26:29.794Z,11.08
2023-02-17T08:28:56.244Z,11.07
2023-02-17T08:31:28.831Z,11.08
2023-02-17T08:33:56.506Z,11.06
2023-02-17T08:36:24.737Z,11.12
2023-02-17T08:38:55.095Z,11.09
2023-02-17T08:41:23.652Z,11.04
2023-02-17T08:43:50.993Z,11.02
2023-02-17T08:46:19.151Z,11.06
2023-02-17T08:48:45.754Z,11.09
2023-02-17T08:51:14.653Z,11.14
2023-02-17T08:53:43.054Z,11.17
2023-02-17T08:56:09.619Z,11.25
2023-02-17T08:58:36.780Z,11.22
2023-02-17T09:01:04.273Z,11.29
2023-02-17T09:03:34.451Z,11.27
2023-02-17T09:06:01.267Z,11.35
2023-02-17T09:08:27.819Z,11.32
2023-02-17T09:10:54.440Z,11.41
2023-02-17T09:13:21.044Z,11.43
2023-02-17T09:15:47.643Z,11.50
2023-02-17T09:18:14.286Z,11.58
2023-02-17T09:20:41.361Z,11.63
2023-02-17T09:23:08.267Z,11.58
2023-02-17T09:25:34.778Z,11.58
2023-02-17T09:28:01.291Z,11.63
2023-02-17T09:30:27.905Z,11.70
2023-02-17T09:32:54.512Z,11.68
2023-02-17T09:35:21.050Z,11.74
2023-02-17T09:37:47.555Z,11.76
2023-02-17T09:40:21.186Z,11.83
2023-02-17T09:42:48.203Z,11.90
2023-02-17T09:45:31.402Z,11.86
2023-02-17T09:48:01.872Z,11.96
2023-02-17T09:50:40.421Z,11.95
2023-02-17T09:53:20.350Z,11.93
2023-02-17T09:55:51.385Z,11.98
2023-02-17T09:58:36.498Z,12.01
2023-02-17T10:01:10.621Z,12.03
2023-02-17T10:03:52.051Z,12.11
2023-02-17T10:06:34.279Z,12.14
2023-02-17T10:09:28.412Z,12.13
2023-02-17T10:12:06.022Z,12.14
2023-02-17T10:14:46.104Z,12.25
2023-02-17T10:17:24.857Z,12.18
2023-02-17T10:19:58.144Z,12.18
2023-02-17T10:22:27.080Z,12.19
2023-02-17T10:24:54.140Z,12.30
2023-02-17T10:27:45.113Z,12.27
2023-02-17T10:30:48.330Z,12.34
2023-02-17T10:33:28.749Z,12.40
2023-02-17T10:36:04.600Z,12.44
2023-02-17T10:39:00.677Z,12.51
2023-02-17T10:41:33.176Z,12.56
2023-02-17T10:44:02.891Z,12.52
2023-02-17T10:46:31.513Z,12.55
2023-02-17T10:48:59.725Z,12.57
2023-02-17T10:51:29.306Z,12.55
2023-02-17T10:54:03.834Z,12.57
2023-02-17T10:56:44.236Z,12.57
2023-02-17T10:59:45.939Z,12.64
2023-02-17T11:02:43.698Z,12.82
2023-02-17T11:05:34.829Z,12.82
2023-02-17T11:08:36.834Z,12.87
2023-02-17T11:11:07.928Z,12.89
2023-02-17T11:13:38.642Z,12.87
2023-02-17T11:16:07.331Z,12.90
2023-02-17T11:18:42.794Z,12.87
2023-02-17T11:21:11.523Z,12.92
2023-02-17T11:24:01.392Z,12.98
2023-02-17T11:26:30.819Z,12.99
2023-02-17T11:29:08.806Z,13.01
2023-02-17T11:31:35.862Z,13.02
2023-02-17T11:34:14.406Z,13.05
2023-02-17T11:36:45.619Z,13.15
2023-02-17T11:39:23.016Z,13.19
2023-02-17T11:41:49.536Z,13.28
2023-02-17T11:44:29.183Z,13.26
2023-02-17T11:47:10.172Z,13.33
2023-02-17T11:49:59.602Z,13.33
2023-02-17T11:52:51.990Z,13.36
2023-02-17T11:55:46.536Z,13.29
2023-02-17T11:58:23.607Z,13.30
2023-02-17T12:01:08.838Z,13.32
2023-02-17T12:03:57.022Z,13.36
2023-02-17T12:07:03.022Z,13.40
2023-02-17T12:09:48.490Z,13.40
2023-02-17T12:12:47.684Z,13.45
2023-02-17T12:15:33.158Z,13.43
2023-02-17T12:18:05.863Z,13.37
2023-02-17T12:20:50.697Z,13.33
2023-02-17T12:23:38.396Z,13.43
2023-02-17T12:26:16.740Z,13.40
2023-02-17T12:29:16.958Z,13.44
2023-02-17T12:32:01.070Z,13.54
2023-02-17T12:34:38.914Z,13.57
2023-02-17T12:37:10.362Z,13.65
2023-02-17T12:39:53.941Z,13.71
2023-02-17T12:42:26.637Z,13.72
2023-02-17T12:45:02.684Z,13.72
2023-02-17T12:47:38.041Z,13.74
2023-02-17T12:50:21.248Z,13.77
2023-02-17T12:52:52.862Z,13.79
2023-02-17T12:55:30.385Z,13.80
2023-02-17T12:58:00.608Z,13.86
2023-02-17T13:00:44.443Z,13.91
2023-02-17T13:03:11.197Z,13.90
2023-02-17T13:05:44.235Z,13.91
2023-02-17T13:08:20.190Z,13.89
2023-02-17T13:10:46.721Z,13.89
2023-02-17T13:13:32.474Z,13.84
2023-02-17T13:16:13.916Z,13.92
2023-02-17T13:18:46.442Z,13.93
2023-02-17T13:21:27.431Z,13.95
2023-02-17T13:24:13.914Z,13.94
2023-02-17T13:26:43.143Z,13.86
2023-02-17T13:29:19.517Z,13.91
2023-02-17T13:32:02.161Z,13.89
2023-02-17T13:34:43.312Z,13.85
2023-02-17T13:37:31.503Z,13.88
2023-02-17T13:39:58.629Z,13.86
2023-02-17T13:42:34.018Z,13.87
2023-02-17T13:45:00.608Z,13.90
2023-02-17T13:47:37.737Z,13.93
2023-02-17T13:50:06.485Z,13.89
2023-02-17T13:52:33.049Z,13.94
2023-02-17T13:55:01.980Z,13.91
2023-02-17T13:57:34.624Z,13.93
2023-02-17T14:00:18.185Z,13.91
2023-02-17T14:03:06.224Z,13.91
2023-02-17T14:05:33.670Z,13.85
2023-02-17T14:08:05.854Z,13.93
2023-02-17T14:10:32.720Z,13.97
2023-02-17T14:12:59.816Z,13.99
2023-02-17T14:15:28.731Z,13.96
2023-02-17T14:17:55.768Z,13.92
2023-02-17T14:20:25.428Z,13.93
2023-02-17T14:23:06.241Z,13.91
2023-02-17T14:25:36.438Z,13.90
2023-02-17T14:28:03.647Z,13.85
2023-02-17T14:30:39.300Z,13.93
2023-02-17T14:33:20.062Z,13.96
2023-02-17T14:35:59.894Z,13.90
2023-02-17T14:38:37.406Z,13.86
2023-02-17T14:41:05.404Z,13.81
2023-02-17T14:43:32.597Z,13.76
2023-02-17T14:45:59.085Z,13.72
2023-02-17T14:48:27.726Z,13.67
2023-02-17T14:50:56.966Z,13.61
2023-02-17T14:53:28.574Z,13.59
2023-02-17T14:56:10.474Z,13.54
2023-02-17T14:58:36.964Z,13.58
2023-02-17T15:01:03.496Z,13.51
2023-02-17T15:03:30.011Z,13.48
2023-02-17T15:05:56.640Z,13.50
2023-02-17T15:08:31.147Z,13.47
2023-02-17T15:10:57.655Z,13.44
2023-02-17T15:13:24.300Z,13.40
2023-02-17T15:15:50.888Z,13.40
2023-02-17T15:18:19.201Z,13.35
2023-02-17T15:20:52.107Z,13.27
2023-02-17T15:23:21.394Z,13.21
2023-02-17T15:25:48.548Z,13.16
2023-02-17T15:28:18.270Z,13.12
2023-02-17T15:30:51.292Z,13.06
2023-02-17T15:33:19.834Z,13.04
2023-02-17T15:35:47.147Z,13.04
2023-02-17T15:38:13.928Z,13.01
2023-02-17T15:40:41.929Z,12.96
2023-02-17T15:43:16.243Z,12.89
2023-02-17T15:45:42.939Z,12.88
2023-02-17T15:48:21.452Z,12.72
2023-02-17T15:50:47.900Z,12.65
2023-02-17T15:53:14.389Z,12.60
2023-02-17T15:55:41.607Z,12.55
2023-02-17T15:58:13.933Z,12.51
2023-02-17T16:00:40.424Z,12.48
2023-02-17T16:03:06.935Z,12.44
2023-02-17T16:05:33.595Z,12.39
2023-02-17T16:08:00.125Z,12.38
2023-02-17T16:10:30.046Z,12.36
2023-02-17T16:12:58.815Z,12.42
2023-02-17T16:15:26.455Z,12.42
2023-02-17T16:17:52.944Z,12.42
2023-02-17T16:20:26.804Z,12.40
2023-02-17T16:22:53.470Z,12.39
2023-02-17T16:25:21.575Z,12.40
2023-02-17T16:27:51.045Z,12.41
2023-02-17T16:30:19.561Z,12.40
2023-02-17T16:32:46.431Z,12.40
2023-02-17T16:35:18.853Z,12.38
2023-02-17T16:38:07.565Z,12.36
2023-02-17T16:40:36.420Z,12.34
2023-02-17T16:43:03.735Z,12.32
2023-02-17T16:45:32.119Z,12.32
2023-02-17T16:48:00.423Z,12.38
2023-02-17T16:50:33.045Z,12.41
2023-02-17T16:53:02.542Z,12.41
2023-02-17T16:55:31.967Z,12.39
2023-02-17T16:57:59.027Z,12.38
2023-02-17T17:00:29.582Z,12.35
2023-02-17T17:02:57.506Z,12.32
2023-02-17T17:05:26.080Z,12.33
2023-02-17T17:07:52.485Z,12.32
2023-02-17T17:10:23.597Z,12.29
2023-02-17T17:12:50.142Z,12.27
2023-02-17T17:15:18.093Z,12.26
2023-02-17T17:17:53.218Z,12.25
2023-02-17T17:20:31.750Z,12.22
2023-02-17T17:23:00.131Z,12.21
2023-02-17T17:25:28.047Z,12.19
2023-02-17T17:27:55.046Z,12.17
2023-02-17T17:30:24.633Z,12.12
2023-02-17T17:32:51.752Z,12.05
2023-02-17T17:35:18.611Z,12.05
2023-02-17T17:37:45.119Z,12.02
2023-02-17T17:40:17.631Z,11.97
2023-02-17T17:42:44.230Z,11.96
2023-02-17T17:45:12.654Z,11.96
2023-02-17T17:47:39.677Z,11.93
2023-02-17T17:50:10.746Z,11.94
2023-02-17T17:52:38.510Z,11.94
2023-02-17T17:55:06.092Z,11.94
2023-02-17T17:57:32.552Z,11.94
2023-02-17T17:59:59.190Z,11.93
2023-02-17T18:02:25.995Z,11.93
2023-02-17T18:04:52.613Z,11.94
2023-02-17T18:07:19.142Z,11.92
2023-02-17T18:09:45.636Z,11.89
2023-02-17T18:12:16.850Z,11.91
2023-02-17T18:14:44.328Z,11.88
2023-02-17T18:17:13.454Z,11.86
2023-02-17T18:19:40.665Z,11.85
2023-02-17T18:22:07.275Z,11.83
2023-02-17T18:24:33.756Z,11.86
2023-02-17T18:27:00.176Z,11.84
2023-02-17T18:29:27.718Z,11.83
2023-02-17T18:31:54.273Z,11.82
2023-02-17T18:34:20.822Z,11.83
2023-02-17T18:36:47.758Z,11.79
2023-02-17T18:39:14.271Z,11.78
2023-02-17T18:41:40.830Z,11.77
2023-02-17T18:44:07.403Z,11.76
2023-02-17T18:46:34.143Z,11.79
2023-02-17T18:49:00.995Z,11.79
2023-02-17T18:51:27.829Z,11.78
2023-02-17T18:53:56.682Z,11.79
2023-02-17T18:56:26.357Z,11.78
2023-02-17T18:58:55.171Z,11.77
2023-02-17T19:01:31.868Z,11.73
2023-02-17T19:03:59.236Z,11.73
2023-02-17T19:06:28.584Z,11.76
2023-02-17T19:08:55.617Z,11.75
2023-02-17T19:11:23.860Z,11.75
2023-02-17T19:13:51.469Z,11.75
2023-02-17T19:16:22.558Z,11.73
2023-02-17T19:18:49.246Z,11.72
2023-02-17T19:21:16.652Z,11.71
2023-02-17T19:23:43.930Z,11.71
2023-02-17T19:26:12.069Z,11.70
2023-02-17T19:28:39.750Z,11.69
2023-02-17T19:31:08.960Z,11.69
2023-02-17T19:33:36.191Z,11.67
2023-02-17T19:36:10.144Z,11.67
2023-02-17T19:38:37.481Z,11.64
2023-02-17T19:41:06.151Z,11.64
2023-02-17T19:43:33.171Z,11.60
2023-02-17T19:45:59.756Z,11.60
2023-02-17T19:48:26.373Z,11.60
2023-02-17T19:50:58.559Z,11.59
2023-02-17T19:53:25.323Z,11.55
2023-02-17T19:55:51.781Z,11.57
2023-02-17T19:58:18.376Z,11.54
2023-02-17T20:00:44.836Z,11.53
2023-02-17T20:03:11.258Z,11.50
2023-02-17T20:05:41.991Z,11.50
2023-02-17T20:08:08.645Z,11.50
2023-02-17T20:10:40.655Z,11.48
2023-02-17T20:13:07.194Z,11.47
2023-02-17T20:15:33.743Z,11.48
2023-02-17T20:18:00.242Z,11.47
2023-02-17T20:20:26.723Z,11.45
2023-02-17T20:22:53.149Z,11.43
2023-02-17T20:25:19.597Z,11.43
2023-02-17T20:27:46.088Z,11.42
2023-02-17T20:30:12.804Z,11.42
2023-02-17T20:32:39.466Z,11.40
2023-02-17T20:35:06.303Z,11.38
2023-02-17T20:37:32.855Z,11.38
2023-02-17T20:39:59.368Z,11.37
2023-02-17T20:42:25.887Z,11.36
2023-02-17T20:44:52.970Z,11.35
2023-02-17T20:47:19.452Z,11.34
2023-02-17T20:49:46.654Z,11.32
2023-02-17T20:52:13.259Z,11.32
2023-02-17T20:54:39.810Z,11.30
2023-02-17T20:57:13.254Z,11.30
2023-02-17T20:59:39.713Z,11.30
2023-02-17T21:02:06.869Z,11.29
2023-02-17T21:04:33.351Z,11.28
2023-02-17T21:07:01.358Z,11.26
2023-02-17T21:09:28.041Z,11.28
2023-02-17T21:11:54.519Z,11.26
2023-02-17T21:14:20.956Z,11.27
2023-02-17T21:16:47.539Z,11.24
2023-02-17T21:19:14.190Z,11.24
2023-02-17T21:21:41.082Z,11.24
2023-02-17T21:24:07.714Z,11.23
2023-02-17T21:26:34.420Z,11.22
2023-02-17T21:29:01.089Z,11.19
2023-02-17T21:31:29.127Z,11.20
2023-02-17T21:33:57.296Z,11.20
2023-02-17T21:36:23.813Z,11.20
2023-02-17T21:38:50.537Z,11.20
2023-02-17T21:41:22.911Z,11.19
2023-02-17T21:44:08.047Z,11.17
2023-02-17T21:46:34.918Z,11.15
2023-02-17T21:49:01.776Z,11.14
2023-02-17T21:51:28.390Z,11.13
2023-02-17T21:53:55.329Z,11.14
2023-02-17T21:56:23.244Z,11.13
2023-02-17T21:58:52.256Z,11.13
2023-02-17T22:01:19.713Z,11.12
2023-02-17T22:03:46.305Z,11.09
2023-02-17T22:06:20.212Z,11.08
2023-02-17T22:08:47.128Z,11.07
2023-02-17T22:11:25.944Z,11.07
2023-02-17T22:13:58.644Z,11.05
2023-02-17T22:16:26.130Z,11.04
2023-02-17T22:18:52.914Z,11.02
2023-02-17T22:21:19.420Z,11.03
2023-02-17T22:23:46.066Z,11.04
2023-02-17T22:26:19.259Z,11.02
2023-02-17T22:28:45.993Z,11.02
2023-02-17T22:31:13.953Z,11.02
2023-02-17T22:33:40.488Z,11.01
2023-02-17T22:36:10.189Z,11.00
2023-02-17T22:38:37.029Z,11.00
2023-02-17T22:41:08.037Z,11.00
2023-02-17T22:43:40.833Z,11.00
2023-02-17T22:46:09.881Z,10.99
2023-02-17T22:48:38.464Z,10.98
2023-02-17T22:51:06.908Z,10.99
2023-02-17T22:53:35.171Z,10.99
2023-02-17T22:56:02.121Z,10.98
2023-02-17T22:58:28.895Z,10.98
2023-02-17T23:01:22.431Z,10.97
2023-02-17T23:03:52.910Z,10.98
2023-02-17T23:06:26.555Z,10.97
2023-02-17T23:08:54.257Z,10.96
2023-02-17T23:11:43.669Z,10.96
2023-02-17T23:14:12.431Z,10.95
2023-02-17T23:16:39.614Z,10.95
2023-02-17T23:19:11.699Z,10.94
2023-02-17T23:21:41.952Z,10.95
2023-02-17T23:24:08.399Z,10.94
2023-02-17T23:26:34.858Z,10.93
2023-02-17T23:29:01.363Z,10.91
2023-02-17T23:31:27.919Z,10.92
2023-02-17T23:33:54.451Z,10.91
2023-02-17T23:36:20.919Z,10.90
2023-02-17T23:38:47.434Z,10.89
2023-02-17T23:41:13.941Z,10.90
2023-02-17T23:43:41.270Z,10.89
2023-02-17T23:46:08.224Z,10.87
2023-02-17T23:48:34.936Z,10.87
2023-02-17T23:51:04.168Z,10.86
2023-02-17T23:53:31.251Z,10.87
2023-02-17T23:56:05.741Z,10.87
2023-02-17T23:58:33.277Z,10.87
